sensor_id;sensor_type;location;lat;lon;timestamp;temperature;humidity
15969;DHT22;8085;53.472;9.794;2023-08-12T00:01:26;18.80;96.00
15969;DHT22;8085;53.472;9.794;2023-08-12T00:03:53;18.80;96.10
15969;DHT22;8085;53.472;9.794;2023-08-12T00:06:20;18.80;96.30
15969;DHT22;8085;53.472;9.794;2023-08-12T00:08:47;18.70;96.30
15969;DHT22;8085;53.472;9.794;2023-08-12T00:11:14;18.70;96.40
15969;DHT22;8085;53.472;9.794;2023-08-12T00:13:41;18.70;96.50
15969;DHT22;8085;53.472;9.794;2023-08-12T00:16:08;18.70;97.10
15969;DHT22;8085;53.472;9.794;2023-08-12T00:18:36;18.70;96.90
15969;DHT22;8085;53.472;9.794;2023-08-12T00:21:06;18.70;97.10
15969;DHT22;8085;53.472;9.794;2023-08-12T00:23:38;18.70;97.20
15969;DHT22;8085;53.472;9.794;2023-08-12T00:26:06;18.80;97.20
15969;DHT22;8085;53.472;9.794;2023-08-12T00:28:33;18.70;97.20
15969;DHT22;8085;53.472;9.794;2023-08-12T00:31:00;18.70;97.20
15969;DHT22;8085;53.472;9.794;2023-08-12T00:33:26;18.70;97.20
15969;DHT22;8085;53.472;9.794;2023-08-12T00:35:55;18.70;97.20
15969;DHT22;8085;53.472;9.794;2023-08-12T00:38:22;18.70;97.40
15969;DHT22;8085;53.472;9.794;2023-08-12T00:40:48;18.70;97.40
15969;DHT22;8085;53.472;9.794;2023-08-12T00:43:15;18.70;97.50
15969;DHT22;8085;53.472;9.794;2023-08-12T00:45:43;18.70;97.60
15969;DHT22;8085;53.472;9.794;2023-08-12T00:48:10;18.70;97.60
15969;DHT22;8085;53.472;9.794;2023-08-12T00:50:39;18.70;97.70
15969;DHT22;8085;53.472;9.794;2023-08-12T00:53:09;18.60;97.90
15969;DHT22;8085;53.472;9.794;2023-08-12T00:55:36;18.60;97.70
15969;DHT22;8085;53.472;9.794;2023-08-12T00:58:04;18.60;97.70
15969;DHT22;8085;53.472;9.794;2023-08-12T01:00:31;18.60;97.80
15969;DHT22;8085;53.472;9.794;2023-08-12T01:03:00;18.60;97.80
15969;DHT22;8085;53.472;9.794;2023-08-12T01:05:27;18.60;98.00
15969;DHT22;8085;53.472;9.794;2023-08-12T01:07:54;18.60;98.40
15969;DHT22;8085;53.472;9.794;2023-08-12T01:10:25;18.50;98.60
15969;DHT22;8085;53.472;9.794;2023-08-12T01:12:59;18.60;98.70
15969;DHT22;8085;53.472;9.794;2023-08-12T01:15:31;18.60;98.90
15969;DHT22;8085;53.472;9.794;2023-08-12T01:18:00;18.50;98.60
15969;DHT22;8085;53.472;9.794;2023-08-12T01:20:28;18.60;98.60
15969;DHT22;8085;53.472;9.794;2023-08-12T01:22:57;18.50;98.50
15969;DHT22;8085;53.472;9.794;2023-08-12T01:25:26;18.50;98.60
15969;DHT22;8085;53.472;9.794;2023-08-12T01:27:53;18.50;98.70
15969;DHT22;8085;53.472;9.794;2023-08-12T01:30:22;18.50;98.60
15969;DHT22;8085;53.472;9.794;2023-08-12T01:32:53;18.50;98.70
15969;DHT22;8085;53.472;9.794;2023-08-12T01:35:25;18.50;98.70
15969;DHT22;8085;53.472;9.794;2023-08-12T01:37:53;18.40;98.60
15969;DHT22;8085;53.472;9.794;2023-08-12T01:40:22;18.40;98.90
15969;DHT22;8085;53.472;9.794;2023-08-12T01:42:50;18.40;98.70
15969;DHT22;8085;53.472;9.794;2023-08-12T01:45:18;18.40;98.80
15969;DHT22;8085;53.472;9.794;2023-08-12T01:47:45;18.40;98.80
15969;DHT22;8085;53.472;9.794;2023-08-12T01:50:15;18.40;98.90
15969;DHT22;8085;53.472;9.794;2023-08-12T01:52:42;18.30;98.90
15969;DHT22;8085;53.472;9.794;2023-08-12T01:55:09;18.30;99.00
15969;DHT22;8085;53.472;9.794;2023-08-12T01:57:36;18.20;99.00
15969;DHT22;8085;53.472;9.794;2023-08-12T02:00:06;18.30;99.20
15969;DHT22;8085;53.472;9.794;2023-08-12T02:02:33;18.20;99.20
15969;DHT22;8085;53.472;9.794;2023-08-12T02:05:00;18.20;99.30
15969;DHT22;8085;53.472;9.794;2023-08-12T02:07:27;18.20;99.40
15969;DHT22;8085;53.472;9.794;2023-08-12T02:09:54;18.20;99.40
15969;DHT22;8085;53.472;9.794;2023-08-12T02:12:21;18.10;99.50
15969;DHT22;8085;53.472;9.794;2023-08-12T02:14:47;18.10;99.70
15969;DHT22;8085;53.472;9.794;2023-08-12T02:17:16;18.10;99.80
15969;DHT22;8085;53.472;9.794;2023-08-12T02:19:43;18.10;99.90
15969;DHT22;8085;53.472;9.794;2023-08-12T02:22:10;18.00;99.80
15969;DHT22;8085;53.472;9.794;2023-08-12T02:24:37;18.00;99.90
15969;DHT22;8085;53.472;9.794;2023-08-12T02:27:04;18.00;99.90
15969;DHT22;8085;53.472;9.794;2023-08-12T02:29:31;18.00;99.90
15969;DHT22;8085;53.472;9.794;2023-08-12T02:31:58;18.00;99.90
15969;DHT22;8085;53.472;9.794;2023-08-12T02:34:26;18.00;99.90
15969;DHT22;8085;53.472;9.794;2023-08-12T02:36:55;18.00;99.90
15969;DHT22;8085;53.472;9.794;2023-08-12T02:39:22;18.00;99.90
15969;DHT22;8085;53.472;9.794;2023-08-12T02:41:49;18.00;99.90
15969;DHT22;8085;53.472;9.794;2023-08-12T02:44:16;18.00;99.90
15969;DHT22;8085;53.472;9.794;2023-08-12T02:46:43;18.10;99.90
15969;DHT22;8085;53.472;9.794;2023-08-12T02:49:10;18.10;99.90
15969;DHT22;8085;53.472;9.794;2023-08-12T02:51:38;18.10;99.90
15969;DHT22;8085;53.472;9.794;2023-08-12T02:54:05;18.10;99.90
15969;DHT22;8085;53.472;9.794;2023-08-12T02:56:32;18.10;99.90
15969;DHT22;8085;53.472;9.794;2023-08-12T02:58:59;18.10;99.90
15969;DHT22;8085;53.472;9.794;2023-08-12T03:01:26;18.10;99.90
15969;DHT22;8085;53.472;9.794;2023-08-12T03:03:53;18.20;99.90
15969;DHT22;8085;53.472;9.794;2023-08-12T03:06:20;18.10;99.90
15969;DHT22;8085;53.472;9.794;2023-08-12T03:08:48;18.10;99.90
15969;DHT22;8085;53.472;9.794;2023-08-12T03:11:15;18.10;99.90
15969;DHT22;8085;53.472;9.794;2023-08-12T03:13:44;18.10;99.90
15969;DHT22;8085;53.472;9.794;2023-08-12T03:16:11;18.10;99.90
15969;DHT22;8085;53.472;9.794;2023-08-12T03:18:39;18.00;99.90
15969;DHT22;8085;53.472;9.794;2023-08-12T03:21:06;18.00;99.90
15969;DHT22;8085;53.472;9.794;2023-08-12T03:23:33;17.90;99.90
15969;DHT22;8085;53.472;9.794;2023-08-12T03:26:02;17.90;99.90
15969;DHT22;8085;53.472;9.794;2023-08-12T03:28:29;17.80;99.90
15969;DHT22;8085;53.472;9.794;2023-08-12T03:30:56;17.80;99.90
15969;DHT22;8085;53.472;9.794;2023-08-12T03:33:23;17.80;99.90
15969;DHT22;8085;53.472;9.794;2023-08-12T03:35:50;17.70;99.90
15969;DHT22;8085;53.472;9.794;2023-08-12T03:38:17;17.70;99.90
15969;DHT22;8085;53.472;9.794;2023-08-12T03:40:44;17.70;99.90
15969;DHT22;8085;53.472;9.794;2023-08-12T03:43:12;17.60;99.90
15969;DHT22;8085;53.472;9.794;2023-08-12T03:45:43;17.60;99.90
15969;DHT22;8085;53.472;9.794;2023-08-12T03:48:10;17.60;99.90
15969;DHT22;8085;53.472;9.794;2023-08-12T03:50:38;17.60;99.90
15969;DHT22;8085;53.472;9.794;2023-08-12T03:53:05;17.60;99.90
15969;DHT22;8085;53.472;9.794;2023-08-12T03:55:34;17.60;99.90
15969;DHT22;8085;53.472;9.794;2023-08-12T03:58:02;17.60;99.90
15969;DHT22;8085;53.472;9.794;2023-08-12T04:00:30;17.60;99.90
15969;DHT22;8085;53.472;9.794;2023-08-12T04:02:57;17.70;99.90
15969;DHT22;8085;53.472;9.794;2023-08-12T04:05:24;17.70;99.90
15969;DHT22;8085;53.472;9.794;2023-08-12T04:07:51;17.70;99.90
15969;DHT22;8085;53.472;9.794;2023-08-12T04:10:18;17.70;99.90
15969;DHT22;8085;53.472;9.794;2023-08-12T04:12:45;17.70;99.90
15969;DHT22;8085;53.472;9.794;2023-08-12T04:15:12;17.80;99.90
15969;DHT22;8085;53.472;9.794;2023-08-12T04:17:40;17.70;99.90
15969;DHT22;8085;53.472;9.794;2023-08-12T04:20:08;17.70;99.90
15969;DHT22;8085;53.472;9.794;2023-08-12T04:22:35;17.80;99.90
15969;DHT22;8085;53.472;9.794;2023-08-12T04:25:02;17.80;99.90
15969;DHT22;8085;53.472;9.794;2023-08-12T04:27:29;17.80;99.90
15969;DHT22;8085;53.472;9.794;2023-08-12T04:29:56;17.90;99.90
15969;DHT22;8085;53.472;9.794;2023-08-12T04:32:23;17.90;99.90
15969;DHT22;8085;53.472;9.794;2023-08-12T04:34:51;17.80;99.90
15969;DHT22;8085;53.472;9.794;2023-08-12T04:37:18;17.90;99.90
15969;DHT22;8085;53.472;9.794;2023-08-12T04:39:45;17.90;99.90
15969;DHT22;8085;53.472;9.794;2023-08-12T04:42:13;18.00;99.90
15969;DHT22;8085;53.472;9.794;2023-08-12T04:44:39;18.00;99.90
15969;DHT22;8085;53.472;9.794;2023-08-12T04:47:07;18.00;99.90
15969;DHT22;8085;53.472;9.794;2023-08-12T04:49:33;18.10;99.90
15969;DHT22;8085;53.472;9.794;2023-08-12T04:52:02;18.10;99.90
15969;DHT22;8085;53.472;9.794;2023-08-12T04:54:29;18.10;99.90
15969;DHT22;8085;53.472;9.794;2023-08-12T04:56:56;18.20;99.90
15969;DHT22;8085;53.472;9.794;2023-08-12T04:59:23;18.30;99.90
15969;DHT22;8085;53.472;9.794;2023-08-12T05:01:49;18.30;99.90
15969;DHT22;8085;53.472;9.794;2023-08-12T05:04:16;18.30;99.90
15969;DHT22;8085;53.472;9.794;2023-08-12T05:06:43;18.30;99.90
15969;DHT22;8085;53.472;9.794;2023-08-12T05:09:11;18.30;99.90
15969;DHT22;8085;53.472;9.794;2023-08-12T05:11:38;18.40;99.90
15969;DHT22;8085;53.472;9.794;2023-08-12T05:14:05;18.40;99.90
15969;DHT22;8085;53.472;9.794;2023-08-12T05:16:33;18.50;99.90
15969;DHT22;8085;53.472;9.794;2023-08-12T05:19:00;18.50;99.90
15969;DHT22;8085;53.472;9.794;2023-08-12T05:21:27;18.50;99.90
15969;DHT22;8085;53.472;9.794;2023-08-12T05:23:54;18.50;99.90
15969;DHT22;8085;53.472;9.794;2023-08-12T05:26:22;18.60;99.90
15969;DHT22;8085;53.472;9.794;2023-08-12T05:28:49;18.50;99.90
15969;DHT22;8085;53.472;9.794;2023-08-12T05:31:16;18.50;99.90
15969;DHT22;8085;53.472;9.794;2023-08-12T05:33:43;18.50;99.90
15969;DHT22;8085;53.472;9.794;2023-08-12T05:36:10;18.40;99.90
15969;DHT22;8085;53.472;9.794;2023-08-12T05:38:37;18.40;99.90
15969;DHT22;8085;53.472;9.794;2023-08-12T05:41:04;18.40;99.90
15969;DHT22;8085;53.472;9.794;2023-08-12T05:43:34;18.40;99.90
15969;DHT22;8085;53.472;9.794;2023-08-12T05:46:01;18.40;99.90
15969;DHT22;8085;53.472;9.794;2023-08-12T05:48:28;18.40;99.90
15969;DHT22;8085;53.472;9.794;2023-08-12T05:50:55;18.40;99.90
15969;DHT22;8085;53.472;9.794;2023-08-12T05:53:22;18.40;99.90
15969;DHT22;8085;53.472;9.794;2023-08-12T05:55:49;18.40;99.90
15969;DHT22;8085;53.472;9.794;2023-08-12T05:58:16;18.50;99.90
15969;DHT22;8085;53.472;9.794;2023-08-12T06:00:45;18.40;99.90
15969;DHT22;8085;53.472;9.794;2023-08-12T06:03:12;18.50;99.90
15969;DHT22;8085;53.472;9.794;2023-08-12T06:05:40;18.60;99.90
15969;DHT22;8085;53.472;9.794;2023-08-12T06:08:08;18.60;99.90
15969;DHT22;8085;53.472;9.794;2023-08-12T06:10:34;18.40;99.90
15969;DHT22;8085;53.472;9.794;2023-08-12T06:13:01;18.50;99.90
15969;DHT22;8085;53.472;9.794;2023-08-12T06:15:28;18.40;99.90
15969;DHT22;8085;53.472;9.794;2023-08-12T06:17:57;18.30;99.90
15969;DHT22;8085;53.472;9.794;2023-08-12T06:20:24;18.40;99.90
15969;DHT22;8085;53.472;9.794;2023-08-12T06:22:51;18.40;99.90
15969;DHT22;8085;53.472;9.794;2023-08-12T06:25:18;18.40;99.90
15969;DHT22;8085;53.472;9.794;2023-08-12T06:27:45;18.40;99.90
15969;DHT22;8085;53.472;9.794;2023-08-12T06:30:13;18.50;99.90
15969;DHT22;8085;53.472;9.794;2023-08-12T06:32:40;18.40;99.90
15969;DHT22;8085;53.472;9.794;2023-08-12T06:35:09;18.50;99.90
15969;DHT22;8085;53.472;9.794;2023-08-12T06:37:36;18.50;99.90
15969;DHT22;8085;53.472;9.794;2023-08-12T06:40:04;18.40;99.90
15969;DHT22;8085;53.472;9.794;2023-08-12T06:42:31;18.50;99.90
15969;DHT22;8085;53.472;9.794;2023-08-12T06:44:59;18.40;99.90
15969;DHT22;8085;53.472;9.794;2023-08-12T06:47:26;18.50;99.90
15969;DHT22;8085;53.472;9.794;2023-08-12T06:49:55;18.60;99.90
15969;DHT22;8085;53.472;9.794;2023-08-12T06:52:23;18.60;99.90
15969;DHT22;8085;53.472;9.794;2023-08-12T06:54:50;18.60;99.90
15969;DHT22;8085;53.472;9.794;2023-08-12T06:57:17;18.70;99.90
15969;DHT22;8085;53.472;9.794;2023-08-12T06:59:44;18.70;99.90
15969;DHT22;8085;53.472;9.794;2023-08-12T07:02:12;18.80;99.90
15969;DHT22;8085;53.472;9.794;2023-08-12T07:04:38;18.80;99.90
15969;DHT22;8085;53.472;9.794;2023-08-12T07:07:05;18.80;99.90
15969;DHT22;8085;53.472;9.794;2023-08-12T07:09:34;18.90;99.90
15969;DHT22;8085;53.472;9.794;2023-08-12T07:12:01;18.90;99.90
15969;DHT22;8085;53.472;9.794;2023-08-12T07:14:28;18.90;99.90
15969;DHT22;8085;53.472;9.794;2023-08-12T07:16:55;18.90;99.90
15969;DHT22;8085;53.472;9.794;2023-08-12T07:19:22;18.90;99.90
15969;DHT22;8085;53.472;9.794;2023-08-12T07:22:05;18.90;99.90
15969;DHT22;8085;53.472;9.794;2023-08-12T07:24:34;18.90;99.90
15969;DHT22;8085;53.472;9.794;2023-08-12T07:27:01;18.90;99.90
15969;DHT22;8085;53.472;9.794;2023-08-12T07:29:28;19.00;99.90
15969;DHT22;8085;53.472;9.794;2023-08-12T07:31:56;19.00;99.90
15969;DHT22;8085;53.472;9.794;2023-08-12T07:34:23;19.00;99.90
15969;DHT22;8085;53.472;9.794;2023-08-12T07:36:49;19.10;99.90
15969;DHT22;8085;53.472;9.794;2023-08-12T07:39:16;19.20;99.90
15969;DHT22;8085;53.472;9.794;2023-08-12T07:41:44;19.30;99.90
15969;DHT22;8085;53.472;9.794;2023-08-12T07:44:10;19.40;99.90
15969;DHT22;8085;53.472;9.794;2023-08-12T07:46:37;19.40;99.90
15969;DHT22;8085;53.472;9.794;2023-08-12T07:49:04;19.50;99.90
15969;DHT22;8085;53.472;9.794;2023-08-12T07:51:31;19.60;99.90
15969;DHT22;8085;53.472;9.794;2023-08-12T07:53:58;19.60;99.90
15969;DHT22;8085;53.472;9.794;2023-08-12T07:56:25;19.60;99.90
15969;DHT22;8085;53.472;9.794;2023-08-12T07:58:53;19.70;99.90
15969;DHT22;8085;53.472;9.794;2023-08-12T08:01:20;19.70;99.90
15969;DHT22;8085;53.472;9.794;2023-08-12T08:03:47;19.80;99.90
15969;DHT22;8085;53.472;9.794;2023-08-12T08:06:13;19.80;99.90
15969;DHT22;8085;53.472;9.794;2023-08-12T08:08:40;19.90;99.90
15969;DHT22;8085;53.472;9.794;2023-08-12T08:11:07;20.00;99.90
15969;DHT22;8085;53.472;9.794;2023-08-12T08:13:34;20.10;99.90
15969;DHT22;8085;53.472;9.794;2023-08-12T08:16:03;20.20;99.90
15969;DHT22;8085;53.472;9.794;2023-08-12T08:18:30;20.30;99.90
15969;DHT22;8085;53.472;9.794;2023-08-12T08:20:56;20.40;99.90
15969;DHT22;8085;53.472;9.794;2023-08-12T08:23:23;20.60;99.90
15969;DHT22;8085;53.472;9.794;2023-08-12T08:25:50;20.70;99.90
15969;DHT22;8085;53.472;9.794;2023-08-12T08:28:17;20.70;99.90
15969;DHT22;8085;53.472;9.794;2023-08-12T08:30:44;20.80;99.90
15969;DHT22;8085;53.472;9.794;2023-08-12T08:33:12;20.80;99.90
15969;DHT22;8085;53.472;9.794;2023-08-12T08:35:39;20.80;99.90
15969;DHT22;8085;53.472;9.794;2023-08-12T08:38:06;20.80;99.90
15969;DHT22;8085;53.472;9.794;2023-08-12T08:40:33;20.80;99.90
15969;DHT22;8085;53.472;9.794;2023-08-12T08:43:02;20.80;99.90
15969;DHT22;8085;53.472;9.794;2023-08-12T08:45:32;20.70;99.90
15969;DHT22;8085;53.472;9.794;2023-08-12T08:47:59;20.70;99.90
15969;DHT22;8085;53.472;9.794;2023-08-12T08:50:29;20.70;99.90
15969;DHT22;8085;53.472;9.794;2023-08-12T08:52:56;20.70;99.90
15969;DHT22;8085;53.472;9.794;2023-08-12T08:55:23;20.70;99.90
15969;DHT22;8085;53.472;9.794;2023-08-12T08:57:51;20.70;99.90
15969;DHT22;8085;53.472;9.794;2023-08-12T09:00:18;20.70;99.90
15969;DHT22;8085;53.472;9.794;2023-08-12T09:02:46;20.70;99.90
15969;DHT22;8085;53.472;9.794;2023-08-12T09:05:15;20.60;99.90
15969;DHT22;8085;53.472;9.794;2023-08-12T09:07:44;20.70;99.90
15969;DHT22;8085;53.472;9.794;2023-08-12T09:10:11;20.70;99.90
15969;DHT22;8085;53.472;9.794;2023-08-12T09:12:39;20.60;99.90
15969;DHT22;8085;53.472;9.794;2023-08-12T09:15:07;20.60;99.90
15969;DHT22;8085;53.472;9.794;2023-08-12T09:17:35;20.60;99.90
15969;DHT22;8085;53.472;9.794;2023-08-12T09:20:02;20.60;99.90
15969;DHT22;8085;53.472;9.794;2023-08-12T09:22:32;20.70;99.90
15969;DHT22;8085;53.472;9.794;2023-08-12T09:25:01;20.70;99.90
15969;DHT22;8085;53.472;9.794;2023-08-12T09:27:30;20.60;99.90
15969;DHT22;8085;53.472;9.794;2023-08-12T09:29:58;20.60;99.90
15969;DHT22;8085;53.472;9.794;2023-08-12T09:32:25;20.60;99.90
15969;DHT22;8085;53.472;9.794;2023-08-12T09:34:53;20.60;99.90
15969;DHT22;8085;53.472;9.794;2023-08-12T09:37:21;20.60;99.90
15969;DHT22;8085;53.472;9.794;2023-08-12T09:39:50;20.60;99.90
15969;DHT22;8085;53.472;9.794;2023-08-12T09:42:18;20.60;99.90
15969;DHT22;8085;53.472;9.794;2023-08-12T09:44:45;20.60;99.90
15969;DHT22;8085;53.472;9.794;2023-08-12T09:47:12;20.60;99.90
15969;DHT22;8085;53.472;9.794;2023-08-12T09:49:40;20.60;99.90
15969;DHT22;8085;53.472;9.794;2023-08-12T09:52:07;20.60;99.90
15969;DHT22;8085;53.472;9.794;2023-08-12T09:54:35;20.70;99.90
15969;DHT22;8085;53.472;9.794;2023-08-12T09:57:04;20.80;99.90
15969;DHT22;8085;53.472;9.794;2023-08-12T09:59:34;20.80;99.90
15969;DHT22;8085;53.472;9.794;2023-08-12T10:02:02;20.80;99.90
15969;DHT22;8085;53.472;9.794;2023-08-12T10:04:39;20.90;99.90
15969;DHT22;8085;53.472;9.794;2023-08-12T10:07:06;20.90;99.90
15969;DHT22;8085;53.472;9.794;2023-08-12T10:09:35;20.90;99.90
15969;DHT22;8085;53.472;9.794;2023-08-12T10:12:03;20.90;99.90
15969;DHT22;8085;53.472;9.794;2023-08-12T10:14:32;20.90;99.90
15969;DHT22;8085;53.472;9.794;2023-08-12T10:17:00;20.90;99.90
15969;DHT22;8085;53.472;9.794;2023-08-12T10:19:28;20.90;99.90
15969;DHT22;8085;53.472;9.794;2023-08-12T10:21:56;21.00;99.90
15969;DHT22;8085;53.472;9.794;2023-08-12T10:24:26;21.00;99.90
15969;DHT22;8085;53.472;9.794;2023-08-12T10:26:53;21.00;99.90
15969;DHT22;8085;53.472;9.794;2023-08-12T10:29:20;20.90;99.90
15969;DHT22;8085;53.472;9.794;2023-08-12T10:31:50;20.90;99.90
15969;DHT22;8085;53.472;9.794;2023-08-12T10:34:19;20.80;99.90
15969;DHT22;8085;53.472;9.794;2023-08-12T10:36:45;20.80;99.90
15969;DHT22;8085;53.472;9.794;2023-08-12T10:39:13;20.80;99.90
15969;DHT22;8085;53.472;9.794;2023-08-12T10:41:50;20.80;99.90
15969;DHT22;8085;53.472;9.794;2023-08-12T10:44:17;20.80;99.90
15969;DHT22;8085;53.472;9.794;2023-08-12T10:46:52;20.80;99.90
15969;DHT22;8085;53.472;9.794;2023-08-12T10:49:20;20.80;99.90
15969;DHT22;8085;53.472;9.794;2023-08-12T10:51:49;20.80;99.90
15969;DHT22;8085;53.472;9.794;2023-08-12T10:54:17;20.80;99.90
15969;DHT22;8085;53.472;9.794;2023-08-12T10:57:11;20.80;99.90
15969;DHT22;8085;53.472;9.794;2023-08-12T10:59:51;20.90;99.90
15969;DHT22;8085;53.472;9.794;2023-08-12T11:02:20;21.10;99.90
15969;DHT22;8085;53.472;9.794;2023-08-12T11:04:50;21.20;99.90
15969;DHT22;8085;53.472;9.794;2023-08-12T11:07:19;21.30;99.90
15969;DHT22;8085;53.472;9.794;2023-08-12T11:09:51;21.40;99.90
15969;DHT22;8085;53.472;9.794;2023-08-12T11:12:28;21.40;99.90
15969;DHT22;8085;53.472;9.794;2023-08-12T11:14:57;21.40;99.90
15969;DHT22;8085;53.472;9.794;2023-08-12T11:17:31;21.40;99.90
15969;DHT22;8085;53.472;9.794;2023-08-12T11:19:59;21.30;99.90
15969;DHT22;8085;53.472;9.794;2023-08-12T11:22:26;21.30;99.90
15969;DHT22;8085;53.472;9.794;2023-08-12T11:24:53;21.20;99.90
15969;DHT22;8085;53.472;9.794;2023-08-12T11:27:22;21.10;99.90
15969;DHT22;8085;53.472;9.794;2023-08-12T11:29:50;21.10;99.90
15969;DHT22;8085;53.472;9.794;2023-08-12T11:32:17;21.10;99.90
15969;DHT22;8085;53.472;9.794;2023-08-12T11:34:46;21.00;99.90
15969;DHT22;8085;53.472;9.794;2023-08-12T11:37:13;21.00;99.90
15969;DHT22;8085;53.472;9.794;2023-08-12T11:39:40;20.90;99.90
15969;DHT22;8085;53.472;9.794;2023-08-12T11:42:07;20.90;99.90
15969;DHT22;8085;53.472;9.794;2023-08-12T11:44:34;20.80;99.90
15969;DHT22;8085;53.472;9.794;2023-08-12T11:47:01;20.80;99.90
15969;DHT22;8085;53.472;9.794;2023-08-12T11:49:27;20.70;99.90
15969;DHT22;8085;53.472;9.794;2023-08-12T11:51:56;20.70;99.90
15969;DHT22;8085;53.472;9.794;2023-08-12T11:54:23;20.70;99.90
15969;DHT22;8085;53.472;9.794;2023-08-12T11:56:50;20.60;99.90
15969;DHT22;8085;53.472;9.794;2023-08-12T11:59:17;20.50;99.90
15969;DHT22;8085;53.472;9.794;2023-08-12T12:01:46;20.50;99.90
15969;DHT22;8085;53.472;9.794;2023-08-12T12:04:15;20.40;99.90
15969;DHT22;8085;53.472;9.794;2023-08-12T12:06:43;20.30;99.90
15969;DHT22;8085;53.472;9.794;2023-08-12T12:09:11;20.20;99.90
15969;DHT22;8085;53.472;9.794;2023-08-12T12:11:40;20.20;99.90
15969;DHT22;8085;53.472;9.794;2023-08-12T12:14:08;20.20;99.90
15969;DHT22;8085;53.472;9.794;2023-08-12T12:16:39;20.20;99.90
15969;DHT22;8085;53.472;9.794;2023-08-12T12:19:12;20.30;99.90
15969;DHT22;8085;53.472;9.794;2023-08-12T12:21:40;20.20;99.90
15969;DHT22;8085;53.472;9.794;2023-08-12T12:24:08;20.30;99.90
15969;DHT22;8085;53.472;9.794;2023-08-12T12:26:42;20.30;99.90
15969;DHT22;8085;53.472;9.794;2023-08-12T12:29:10;20.30;99.90
15969;DHT22;8085;53.472;9.794;2023-08-12T12:31:41;20.40;99.90
15969;DHT22;8085;53.472;9.794;2023-08-12T12:34:08;20.40;99.90
15969;DHT22;8085;53.472;9.794;2023-08-12T12:36:37;20.40;99.90
15969;DHT22;8085;53.472;9.794;2023-08-12T12:39:07;20.40;99.90
15969;DHT22;8085;53.472;9.794;2023-08-12T12:41:34;20.30;99.90
15969;DHT22;8085;53.472;9.794;2023-08-12T12:44:02;20.30;99.90
15969;DHT22;8085;53.472;9.794;2023-08-12T12:46:30;20.20;99.90
15969;DHT22;8085;53.472;9.794;2023-08-12T12:48:57;20.20;99.90
15969;DHT22;8085;53.472;9.794;2023-08-12T12:51:24;20.20;99.90
15969;DHT22;8085;53.472;9.794;2023-08-12T12:53:51;20.20;99.90
15969;DHT22;8085;53.472;9.794;2023-08-12T12:56:17;20.20;99.90
15969;DHT22;8085;53.472;9.794;2023-08-12T12:58:44;20.20;99.90
15969;DHT22;8085;53.472;9.794;2023-08-12T13:01:12;20.30;99.90
15969;DHT22;8085;53.472;9.794;2023-08-12T13:03:39;20.40;99.90
15969;DHT22;8085;53.472;9.794;2023-08-12T13:06:06;20.50;99.90
15969;DHT22;8085;53.472;9.794;2023-08-12T13:08:33;20.60;99.90
15969;DHT22;8085;53.472;9.794;2023-08-12T13:11:00;20.60;99.90
15969;DHT22;8085;53.472;9.794;2023-08-12T13:13:27;20.60;99.90
15969;DHT22;8085;53.472;9.794;2023-08-12T13:15:54;20.70;99.90
15969;DHT22;8085;53.472;9.794;2023-08-12T13:18:22;20.70;99.90
15969;DHT22;8085;53.472;9.794;2023-08-12T13:20:49;20.80;99.90
15969;DHT22;8085;53.472;9.794;2023-08-12T13:23:16;20.90;99.90
15969;DHT22;8085;53.472;9.794;2023-08-12T13:25:42;20.90;99.90
15969;DHT22;8085;53.472;9.794;2023-08-12T13:28:09;21.00;99.90
15969;DHT22;8085;53.472;9.794;2023-08-12T13:30:36;21.00;99.90
15969;DHT22;8085;53.472;9.794;2023-08-12T13:33:03;21.00;99.90
15969;DHT22;8085;53.472;9.794;2023-08-12T13:35:32;21.00;99.90
15969;DHT22;8085;53.472;9.794;2023-08-12T13:37:59;21.00;99.90
15969;DHT22;8085;53.472;9.794;2023-08-12T13:40:26;21.00;99.90
15969;DHT22;8085;53.472;9.794;2023-08-12T13:42:53;20.90;99.90
15969;DHT22;8085;53.472;9.794;2023-08-12T13:45:20;20.90;99.90
15969;DHT22;8085;53.472;9.794;2023-08-12T13:47:47;21.00;99.90
15969;DHT22;8085;53.472;9.794;2023-08-12T13:50:14;21.00;99.90
15969;DHT22;8085;53.472;9.794;2023-08-12T13:52:42;21.10;99.90
15969;DHT22;8085;53.472;9.794;2023-08-12T13:55:09;21.20;99.90
15969;DHT22;8085;53.472;9.794;2023-08-12T13:57:36;21.30;99.90
15969;DHT22;8085;53.472;9.794;2023-08-12T14:00:04;21.40;99.90
15969;DHT22;8085;53.472;9.794;2023-08-12T14:02:35;21.40;99.90
15969;DHT22;8085;53.472;9.794;2023-08-12T14:05:02;21.40;99.90
15969;DHT22;8085;53.472;9.794;2023-08-12T14:07:29;21.30;99.90
15969;DHT22;8085;53.472;9.794;2023-08-12T14:09:58;21.30;99.90
15969;DHT22;8085;53.472;9.794;2023-08-12T14:12:24;21.30;99.90
15969;DHT22;8085;53.472;9.794;2023-08-12T14:14:52;21.20;99.90
15969;DHT22;8085;53.472;9.794;2023-08-12T14:17:19;21.20;99.90
15969;DHT22;8085;53.472;9.794;2023-08-12T14:19:49;21.10;99.90
15969;DHT22;8085;53.472;9.794;2023-08-12T14:22:16;21.10;99.90
15969;DHT22;8085;53.472;9.794;2023-08-12T14:24:43;21.00;99.90
15969;DHT22;8085;53.472;9.794;2023-08-12T14:27:12;21.00;99.90
15969;DHT22;8085;53.472;9.794;2023-08-12T14:29:39;20.90;99.90
15969;DHT22;8085;53.472;9.794;2023-08-12T14:32:06;20.90;99.90
15969;DHT22;8085;53.472;9.794;2023-08-12T14:34:33;20.90;99.90
15969;DHT22;8085;53.472;9.794;2023-08-12T14:37:00;20.90;99.90
15969;DHT22;8085;53.472;9.794;2023-08-12T14:39:26;20.90;99.90
15969;DHT22;8085;53.472;9.794;2023-08-12T14:41:53;21.00;99.90
15969;DHT22;8085;53.472;9.794;2023-08-12T14:44:21;21.00;99.90
15969;DHT22;8085;53.472;9.794;2023-08-12T14:46:48;21.00;99.90
15969;DHT22;8085;53.472;9.794;2023-08-12T14:49:15;21.00;99.90
15969;DHT22;8085;53.472;9.794;2023-08-12T14:51:42;21.00;99.90
15969;DHT22;8085;53.472;9.794;2023-08-12T14:54:09;21.00;99.90
15969;DHT22;8085;53.472;9.794;2023-08-12T14:56:35;21.00;99.90
15969;DHT22;8085;53.472;9.794;2023-08-12T14:59:02;20.90;99.90
15969;DHT22;8085;53.472;9.794;2023-08-12T15:01:31;20.90;99.90
15969;DHT22;8085;53.472;9.794;2023-08-12T15:03:58;20.90;99.90
15969;DHT22;8085;53.472;9.794;2023-08-12T15:06:24;20.90;99.90
15969;DHT22;8085;53.472;9.794;2023-08-12T15:08:51;21.00;99.90
15969;DHT22;8085;53.472;9.794;2023-08-12T15:11:18;21.10;99.90
15969;DHT22;8085;53.472;9.794;2023-08-12T15:13:45;21.20;99.90
15969;DHT22;8085;53.472;9.794;2023-08-12T15:16:12;21.30;99.90
15969;DHT22;8085;53.472;9.794;2023-08-12T15:18:40;21.30;99.90
15969;DHT22;8085;53.472;9.794;2023-08-12T15:21:08;21.40;99.90
15969;DHT22;8085;53.472;9.794;2023-08-12T15:23:35;21.40;99.90
15969;DHT22;8085;53.472;9.794;2023-08-12T15:26:02;21.50;99.90
15969;DHT22;8085;53.472;9.794;2023-08-12T15:28:29;21.40;99.90
15969;DHT22;8085;53.472;9.794;2023-08-12T15:30:56;21.40;99.90
15969;DHT22;8085;53.472;9.794;2023-08-12T15:33:23;21.40;99.90
15969;DHT22;8085;53.472;9.794;2023-08-12T15:35:51;21.30;99.90
15969;DHT22;8085;53.472;9.794;2023-08-12T15:38:18;21.30;99.90
15969;DHT22;8085;53.472;9.794;2023-08-12T15:40:44;21.30;99.90
15969;DHT22;8085;53.472;9.794;2023-08-12T15:43:11;21.40;99.90
15969;DHT22;8085;53.472;9.794;2023-08-12T15:45:38;21.50;99.90
15969;DHT22;8085;53.472;9.794;2023-08-12T15:48:08;21.70;99.90